createdAt,value
2023-01-03T00:00:40.955Z,4.60
2023-01-03T00:01:41.107Z,4.80
2023-01-03T00:02:41.520Z,4.70
2023-01-03T00:03:41.732Z,4.80
2023-01-03T00:04:47.394Z,4.80
2023-01-03T00:05:43.198Z,4.70
2023-01-03T00:06:42.468Z,5.00
2023-01-03T00:07:42.768Z,5.60
2023-01-03T00:08:43.117Z,5.20
2023-01-03T00:09:43.413Z,4.70
2023-01-03T00:10:43.750Z,5.00
2023-01-03T00:11:44.028Z,4.80
2023-01-03T00:12:44.298Z,4.70
2023-01-03T00:13:44.627Z,5.10
2023-01-03T00:14:44.911Z,4.90
2023-01-03T00:15:45.171Z,4.90
2023-01-03T00:16:45.583Z,5.20
2023-01-03T00:17:45.776Z,4.50
2023-01-03T00:18:46.106Z,5.30
2023-01-03T00:19:46.420Z,5.10
2023-01-03T00:20:46.701Z,4.90
2023-01-03T00:21:47.018Z,4.50
2023-01-03T00:22:47.338Z,5.00
2023-01-03T00:23:47.657Z,5.40
2023-01-03T00:24:47.976Z,5.20
2023-01-03T00:25:48.262Z,4.70
2023-01-03T00:26:48.563Z,5.80
2023-01-03T00:27:48.855Z,5.00
2023-01-03T00:28:49.152Z,5.30
2023-01-03T00:29:49.447Z,5.20
2023-01-03T00:30:49.759Z,5.90
2023-01-03T00:31:50.071Z,5.60
2023-01-03T00:32:50.399Z,5.30
2023-01-03T00:33:50.728Z,5.40
2023-01-03T00:34:51.056Z,5.60
2023-01-03T00:35:51.333Z,5.20
2023-01-03T00:36:51.674Z,5.10
2023-01-03T00:37:51.927Z,5.00
2023-01-03T00:38:52.221Z,4.80
2023-01-03T00:39:52.538Z,5.20
2023-01-03T00:40:52.832Z,4.80
2023-01-03T00:41:53.161Z,5.10
2023-01-03T00:42:53.467Z,4.70
2023-01-03T00:43:53.817Z,5.10
2023-01-03T00:44:54.112Z,5.20
2023-01-03T00:45:54.460Z,5.50
2023-01-03T00:46:54.720Z,5.50
2023-01-03T00:47:55.019Z,5.10
2023-01-03T00:48:55.340Z,5.20
2023-01-03T00:49:55.609Z,5.10
2023-01-03T00:50:55.892Z,5.50
2023-01-03T00:51:56.223Z,5.20
2023-01-03T00:52:56.509Z,4.10
2023-01-03T00:53:56.833Z,4.90
2023-01-03T00:54:57.129Z,4.10
2023-01-03T00:55:57.392Z,4.80
2023-01-03T00:56:57.710Z,4.90
2023-01-03T00:57:58.027Z,4.50
2023-01-03T00:58:58.332Z,4.60
2023-01-03T00:59:58.631Z,4.50
2023-01-03T01:00:58.973Z,4.30
2023-01-03T01:01:59.315Z,4.20
2023-01-03T01:02:59.671Z,3.90
2023-01-03T01:03:59.916Z,3.80
2023-01-03T01:05:00.023Z,4.10
2023-01-03T01:06:00.341Z,3.50
2023-01-03T01:07:00.659Z,3.10
2023-01-03T01:08:00.931Z,3.00
2023-01-03T01:09:01.239Z,2.90
2023-01-03T01:10:01.552Z,3.00
2023-01-03T01:11:01.995Z,3.00
2023-01-03T01:12:02.218Z,3.00
2023-01-03T01:13:02.518Z,2.90
2023-01-03T01:14:02.780Z,2.90
2023-01-03T01:15:03.097Z,2.50
2023-01-03T01:16:03.460Z,2.40
2023-01-03T01:17:03.665Z,2.80
2023-01-03T01:18:03.961Z,2.70
2023-01-03T01:19:04.267Z,3.00
2023-01-03T01:20:04.586Z,3.00
2023-01-03T01:21:04.858Z,3.00
2023-01-03T01:22:05.176Z,3.00
2023-01-03T01:23:05.482Z,2.90
2023-01-03T01:24:05.782Z,2.60
2023-01-03T01:25:06.118Z,3.10
2023-01-03T01:26:06.422Z,2.80
2023-01-03T01:27:06.751Z,2.80
2023-01-03T01:28:07.049Z,3.10
2023-01-03T01:29:07.376Z,3.10
2023-01-03T01:30:07.637Z,3.20
2023-01-03T01:31:07.987Z,3.20
2023-01-03T01:32:08.343Z,3.10
2023-01-03T01:33:08.653Z,3.20
2023-01-03T01:34:09.037Z,3.20
2023-01-03T01:35:09.210Z,3.20
2023-01-03T01:36:09.457Z,3.00
2023-01-03T01:37:09.789Z,2.90
2023-01-03T01:38:10.099Z,2.80
2023-01-03T01:39:10.514Z,3.10
2023-01-03T01:40:10.775Z,2.80
2023-01-03T01:41:10.950Z,3.10
2023-01-03T01:42:16.552Z,2.80
2023-01-03T01:43:12.559Z,3.10
2023-01-03T01:44:11.803Z,2.90
2023-01-03T01:45:12.105Z,2.90
2023-01-03T01:46:12.417Z,3.00
2023-01-03T01:47:12.736Z,3.20
2023-01-03T01:48:13.048Z,2.90
2023-01-03T01:49:13.379Z,2.70
2023-01-03T01:50:13.684Z,2.60
2023-01-03T01:51:13.970Z,2.90
2023-01-03T01:52:14.292Z,3.00
2023-01-03T01:53:14.582Z,2.80
2023-01-03T01:54:14.893Z,3.00
2023-01-03T01:55:15.179Z,2.80
2023-01-03T01:56:15.498Z,2.60
2023-01-03T01:57:15.797Z,2.80
2023-01-03T01:58:16.058Z,3.00
2023-01-03T01:59:16.371Z,2.60
2023-01-03T02:00:16.697Z,3.00
2023-01-03T02:01:17.157Z,2.60
2023-01-03T02:02:17.427Z,2.70
2023-01-03T02:03:17.681Z,2.90
2023-01-03T02:04:17.861Z,3.10
2023-01-03T02:05:18.172Z,2.80
2023-01-03T02:06:18.499Z,3.50
2023-01-03T02:07:18.773Z,3.00
2023-01-03T02:08:19.082Z,3.00
2023-01-03T02:09:19.400Z,3.30
2023-01-03T02:10:19.696Z,3.00
2023-01-03T02:11:19.999Z,2.80
2023-01-03T02:12:20.321Z,3.10
2023-01-03T02:13:20.612Z,3.20
2023-01-03T02:14:20.939Z,3.00
2023-01-03T02:15:21.241Z,3.00
2023-01-03T02:16:21.551Z,2.40
2023-01-03T02:17:21.843Z,2.50
2023-01-03T02:18:22.168Z,2.70
2023-01-03T02:19:22.458Z,2.70
2023-01-03T02:20:22.749Z,2.30
2023-01-03T02:21:23.068Z,2.60
2023-01-03T02:22:23.332Z,2.70
2023-01-03T02:23:23.634Z,2.90
2023-01-03T02:24:23.946Z,2.40
2023-01-03T02:25:24.275Z,3.00
2023-01-03T02:26:24.570Z,2.60
2023-01-03T02:27:24.879Z,2.80
2023-01-03T02:28:25.153Z,2.70
2023-01-03T02:29:25.457Z,2.40
2023-01-03T02:30:25.772Z,2.50
2023-01-03T02:31:26.123Z,2.30
2023-01-03T02:32:26.312Z,2.40
2023-01-03T02:33:26.621Z,1.90
2023-01-03T02:34:26.915Z,2.40
2023-01-03T02:35:27.254Z,1.90
2023-01-03T02:36:27.583Z,1.90
2023-01-03T02:37:27.911Z,2.40
2023-01-03T02:38:28.240Z,2.30
2023-01-03T02:39:28.533Z,2.10
2023-01-03T02:40:28.889Z,2.30
2023-01-03T02:41:29.200Z,2.40
2023-01-03T02:42:29.468Z,2.20
2023-01-03T02:43:29.814Z,2.50
2023-01-03T02:44:30.062Z,2.40
2023-01-03T02:45:30.379Z,2.30
2023-01-03T02:46:30.745Z,2.30
2023-01-03T02:47:30.970Z,2.40
2023-01-03T02:48:31.264Z,2.40
2023-01-03T02:49:31.582Z,2.70
2023-01-03T02:50:31.870Z,2.60
2023-01-03T02:51:32.145Z,2.50
2023-01-03T02:52:32.470Z,2.70
2023-01-03T02:53:32.694Z,3.20
2023-01-03T02:54:33.061Z,2.70
2023-01-03T02:55:33.348Z,2.70
2023-01-03T02:56:33.604Z,3.10
2023-01-03T02:57:33.951Z,2.70
2023-01-03T02:58:34.253Z,2.60
2023-01-03T02:59:34.561Z,2.80
2023-01-03T03:00:34.823Z,2.70
2023-01-03T03:01:35.228Z,2.70
2023-01-03T03:02:35.667Z,2.60
2023-01-03T03:03:35.819Z,2.80
2023-01-03T03:04:36.169Z,2.90
2023-01-03T03:05:36.462Z,2.90
2023-01-03T03:06:36.755Z,2.70
2023-01-03T03:07:37.045Z,3.10
2023-01-03T03:08:37.356Z,3.20
2023-01-03T03:09:37.625Z,3.20
2023-01-03T03:10:37.933Z,2.90
2023-01-03T03:11:38.213Z,3.20
2023-01-03T03:12:38.481Z,3.30
2023-01-03T03:13:38.828Z,2.70
2023-01-03T03:14:39.132Z,3.50
2023-01-03T03:15:39.436Z,3.10
2023-01-03T03:16:39.803Z,3.30
2023-01-03T03:17:39.925Z,3.20
2023-01-03T03:18:40.233Z,3.30
2023-01-03T03:19:40.517Z,3.30
2023-01-03T03:20:40.774Z,3.40
2023-01-03T03:21:41.082Z,3.20
2023-01-03T03:22:41.374Z,3.30
2023-01-03T03:23:41.670Z,3.00
2023-01-03T03:24:41.961Z,2.90
2023-01-03T03:25:42.304Z,2.90
2023-01-03T03:26:42.611Z,3.10
2023-01-03T03:27:42.925Z,3.00
2023-01-03T03:28:43.216Z,3.30
2023-01-03T03:29:43.549Z,3.30
2023-01-03T03:30:43.878Z,3.80
2023-01-03T03:31:44.186Z,3.30
2023-01-03T03:32:44.481Z,3.20
2023-01-03T03:33:44.797Z,3.50
2023-01-03T03:34:45.100Z,3.50
2023-01-03T03:35:45.423Z,2.80
2023-01-03T03:36:45.719Z,3.00
2023-01-03T03:37:46.010Z,3.10
2023-01-03T03:38:46.313Z,3.00
2023-01-03T03:39:46.636Z,3.10
2023-01-03T03:40:46.932Z,3.10
2023-01-03T03:41:47.235Z,3.10
2023-01-03T03:42:47.485Z,2.80
2023-01-03T03:43:47.759Z,3.00
2023-01-03T03:44:48.057Z,2.90
2023-01-03T03:45:48.346Z,2.80
2023-01-03T03:46:54.435Z,3.00
2023-01-03T03:47:49.938Z,2.60
2023-01-03T03:48:49.159Z,2.60
2023-01-03T03:49:49.482Z,2.80
2023-01-03T03:50:49.781Z,2.80
2023-01-03T03:51:50.052Z,2.70
2023-01-03T03:52:50.335Z,3.20
2023-01-03T03:53:50.616Z,2.50
2023-01-03T03:54:50.909Z,2.30
2023-01-03T03:55:51.199Z,2.50
2023-01-03T03:56:51.446Z,2.40
2023-01-03T03:57:51.793Z,2.40
2023-01-03T03:58:52.114Z,2.30
2023-01-03T03:59:52.420Z,2.30
2023-01-03T04:00:52.663Z,2.20
2023-01-03T04:01:53.102Z,2.00
2023-01-03T04:02:53.438Z,2.40
2023-01-03T04:03:53.646Z,2.80
2023-01-03T04:04:53.879Z,2.30
2023-01-03T04:05:54.179Z,2.20
2023-01-03T04:06:54.472Z,2.40
2023-01-03T04:07:54.735Z,2.50
2023-01-03T04:08:55.032Z,2.50
2023-01-03T04:09:55.306Z,2.30
2023-01-03T04:10:55.636Z,2.10
2023-01-03T04:11:55.924Z,2.50
2023-01-03T04:12:56.196Z,2.50
2023-01-03T04:13:56.477Z,2.40
2023-01-03T04:14:56.796Z,2.50
2023-01-03T04:15:57.134Z,2.70
2023-01-03T04:16:57.385Z,2.50
2023-01-03T04:17:57.614Z,2.50
2023-01-03T04:18:57.918Z,2.70
2023-01-03T04:19:58.191Z,3.40
2023-01-03T04:20:58.453Z,2.40
2023-01-03T04:21:58.781Z,2.40
2023-01-03T04:22:59.061Z,2.60
2023-01-03T04:23:59.314Z,2.90
2023-01-03T04:24:59.626Z,2.50
2023-01-03T04:25:59.893Z,2.50
2023-01-03T04:27:00.191Z,2.70
2023-01-03T04:28:00.544Z,2.60
2023-01-03T04:29:00.789Z,2.70
2023-01-03T04:30:01.157Z,2.90
2023-01-03T04:31:01.427Z,2.60
2023-01-03T04:32:01.813Z,2.70
2023-01-03T04:33:02.004Z,2.60
2023-01-03T04:34:02.270Z,2.80
2023-01-03T04:35:02.558Z,2.70
2023-01-03T04:36:02.846Z,3.00
2023-01-03T04:37:03.115Z,2.90
2023-01-03T04:38:03.427Z,3.10
2023-01-03T04:39:03.669Z,3.00
2023-01-03T04:40:04.005Z,2.80
2023-01-03T04:41:04.352Z,2.30
2023-01-03T04:42:04.587Z,2.50
2023-01-03T04:43:04.903Z,2.70
2023-01-03T04:44:05.163Z,2.40
2023-01-03T04:45:05.504Z,2.50
2023-01-03T04:46:05.799Z,2.60
2023-01-03T04:47:06.026Z,2.50
2023-01-03T04:48:06.274Z,2.50
2023-01-03T04:49:06.557Z,2.70
2023-01-03T04:50:06.874Z,2.80
2023-01-03T04:51:07.153Z,2.80
2023-01-03T04:52:07.456Z,2.50
2023-01-03T04:53:07.734Z,2.90
2023-01-03T04:54:07.968Z,2.60
2023-01-03T04:55:08.287Z,2.50
2023-01-03T04:56:08.553Z,2.60
2023-01-03T04:57:08.847Z,2.80
2023-01-03T04:58:09.137Z,2.60
2023-01-03T04:59:09.469Z,2.70
2023-01-03T05:00:09.719Z,2.70
2023-01-03T05:01:10.184Z,2.50
2023-01-03T05:02:10.546Z,2.90
2023-01-03T05:03:10.579Z,2.50
2023-01-03T05:04:10.948Z,3.00
2023-01-03T05:05:11.265Z,2.60
2023-01-03T05:06:11.557Z,2.60
2023-01-03T05:07:11.818Z,2.30
2023-01-03T05:08:12.093Z,2.30
2023-01-03T05:09:12.356Z,2.30
2023-01-03T05:10:12.686Z,2.20
2023-01-03T05:11:12.919Z,2.50
2023-01-03T05:12:13.220Z,2.50
2023-01-03T05:13:13.525Z,2.50
2023-01-03T05:14:14.649Z,2.80
2023-01-03T05:15:14.071Z,2.80
2023-01-03T05:16:14.465Z,2.60
2023-01-03T05:17:14.629Z,2.70
2023-01-03T05:18:14.898Z,3.10
2023-01-03T05:19:15.137Z,2.90
2023-01-03T05:20:15.511Z,2.70
2023-01-03T05:21:15.775Z,2.70
2023-01-03T05:22:16.088Z,2.70
2023-01-03T05:23:16.337Z,2.60
2023-01-03T05:24:16.618Z,3.10
2023-01-03T05:25:16.956Z,2.50
2023-01-03T05:26:17.221Z,2.80
2023-01-03T05:27:17.507Z,2.60
2023-01-03T05:28:17.889Z,3.20
2023-01-03T05:29:18.145Z,3.00
2023-01-03T05:30:18.413Z,3.00
2023-01-03T05:31:18.729Z,2.70
2023-01-03T05:32:19.092Z,3.10
2023-01-03T05:33:19.323Z,2.80
2023-01-03T05:34:19.602Z,2.80
2023-01-03T05:35:19.852Z,3.10
2023-01-03T05:36:20.182Z,2.50
2023-01-03T05:37:20.454Z,3.00
2023-01-03T05:38:20.698Z,2.70
2023-01-03T05:39:21.006Z,3.80
2023-01-03T05:40:21.358Z,5.20
2023-01-03T05:41:21.636Z,39.80
2023-01-03T05:42:22.290Z,21.50
2023-01-03T05:43:22.275Z,26.80
2023-01-03T05:44:22.623Z,12.10
2023-01-03T05:45:22.937Z,6.90
2023-01-03T05:46:23.244Z,4.00
2023-01-03T05:47:23.540Z,2.40
2023-01-03T05:48:23.813Z,5.60
2023-01-03T05:49:24.069Z,5.20
2023-01-03T05:50:24.389Z,11.00
2023-01-03T05:51:24.716Z,7.40
2023-01-03T05:52:24.968Z,10.50
2023-01-03T05:53:25.342Z,8.20
2023-01-03T05:54:25.636Z,6.20
2023-01-03T05:55:25.926Z,6.30
2023-01-03T05:56:26.215Z,5.80
2023-01-03T05:57:30.554Z,6.10
2023-01-03T05:58:27.774Z,6.80
2023-01-03T05:59:27.151Z,4.80
2023-01-03T06:00:27.486Z,4.00
2023-01-03T06:01:27.776Z,5.10
2023-01-03T06:02:28.121Z,5.30
2023-01-03T06:03:28.266Z,4.40
2023-01-03T06:04:28.585Z,4.30
2023-01-03T06:05:28.937Z,4.10
2023-01-03T06:06:29.228Z,3.80
2023-01-03T06:07:29.507Z,3.30
2023-01-03T06:08:29.775Z,4.00
2023-01-03T06:09:30.030Z,3.20
2023-01-03T06:10:30.366Z,3.20
2023-01-03T06:11:30.657Z,3.20
2023-01-03T06:12:30.919Z,3.50
2023-01-03T06:13:31.242Z,3.40
2023-01-03T06:14:31.534Z,3.20
2023-01-03T06:15:31.865Z,2.80
2023-01-03T06:16:32.210Z,3.40
2023-01-03T06:17:32.492Z,3.80
2023-01-03T06:18:32.776Z,4.20
2023-01-03T06:19:33.095Z,4.00
2023-01-03T06:20:33.391Z,4.20
2023-01-03T06:21:33.655Z,3.60
2023-01-03T06:22:33.946Z,3.70
2023-01-03T06:23:34.216Z,3.80
2023-01-03T06:24:34.494Z,3.30
2023-01-03T06:25:34.826Z,3.60
2023-01-03T06:26:35.116Z,3.40
2023-01-03T06:27:35.406Z,3.60
2023-01-03T06:28:35.668Z,3.70
2023-01-03T06:29:35.979Z,4.10
2023-01-03T06:30:36.358Z,4.80
2023-01-03T06:31:36.564Z,4.50
2023-01-03T06:32:36.866Z,5.70
2023-01-03T06:33:37.145Z,4.80
2023-01-03T06:34:37.435Z,4.10
2023-01-03T06:35:37.689Z,4.00
2023-01-03T06:36:37.986Z,4.20
2023-01-03T06:37:38.300Z,4.30
2023-01-03T06:38:38.568Z,4.00
2023-01-03T06:39:38.823Z,3.60
2023-01-03T06:40:45.431Z,4.00
2023-01-03T06:41:40.472Z,3.70
2023-01-03T06:42:39.791Z,4.50
2023-01-03T06:43:40.138Z,4.40
2023-01-03T06:44:40.400Z,4.30
2023-01-03T06:45:40.726Z,4.10
2023-01-03T06:46:41.071Z,4.00
2023-01-03T06:47:41.301Z,4.50
2023-01-03T06:48:41.612Z,4.80
2023-01-03T06:49:41.849Z,4.80
2023-01-03T06:50:42.190Z,5.30
2023-01-03T06:51:42.479Z,4.50
2023-01-03T06:52:42.806Z,4.40
2023-01-03T06:53:43.072Z,5.80
2023-01-03T06:54:43.359Z,4.30
2023-01-03T06:55:43.672Z,4.00
2023-01-03T06:56:43.940Z,4.00
2023-01-03T06:57:44.254Z,4.50
2023-01-03T06:58:44.528Z,4.40
2023-01-03T06:59:44.788Z,4.30
2023-01-03T07:00:45.086Z,4.20
2023-01-03T07:01:45.524Z,4.30
2023-01-03T07:02:45.770Z,4.40
2023-01-03T07:03:45.961Z,4.20
2023-01-03T07:04:46.259Z,4.30
2023-01-03T07:05:46.562Z,4.40
2023-01-03T07:06:46.869Z,4.10
2023-01-03T07:07:47.136Z,4.50
2023-01-03T07:08:48.565Z,4.60
2023-01-03T07:09:47.612Z,4.80
2023-01-03T07:10:47.945Z,4.70
2023-01-03T07:11:48.240Z,4.80
2023-01-03T07:12:48.519Z,4.80
2023-01-03T07:13:48.809Z,5.30
2023-01-03T07:14:49.041Z,5.10
2023-01-03T07:15:49.492Z,5.40
2023-01-03T07:16:49.644Z,5.40
2023-01-03T07:17:49.941Z,5.10
2023-01-03T07:18:54.917Z,7.50
2023-01-03T07:19:51.582Z,7.40
2023-01-03T07:20:50.866Z,8.70
2023-01-03T07:21:51.178Z,6.30
2023-01-03T07:22:51.490Z,6.00
2023-01-03T07:23:51.787Z,5.80
2023-01-03T07:24:52.127Z,5.00
2023-01-03T07:25:52.466Z,5.10
2023-01-03T07:26:52.758Z,4.80
2023-01-03T07:27:53.061Z,5.00
2023-01-03T07:28:53.365Z,4.30
2023-01-03T07:29:53.635Z,5.10
2023-01-03T07:30:54.010Z,4.80
2023-01-03T07:31:54.331Z,4.60
2023-01-03T07:32:54.552Z,4.70
2023-01-03T07:33:54.834Z,19.30
2023-01-03T07:34:55.200Z,16.30
2023-01-03T07:35:55.439Z,14.90
2023-01-03T07:36:55.653Z,13.60
2023-01-03T07:37:55.995Z,20.60
2023-01-03T07:38:56.223Z,18.00
2023-01-03T07:39:56.425Z,11.10
2023-01-03T07:40:56.767Z,6.90
2023-01-03T07:41:57.085Z,8.90
2023-01-03T07:42:57.377Z,9.20
2023-01-03T07:43:57.739Z,8.20
2023-01-03T07:44:58.049Z,8.20
2023-01-03T07:45:58.464Z,8.00
2023-01-03T07:46:58.661Z,8.00
2023-01-03T07:47:59.033Z,8.10
2023-01-03T07:48:59.371Z,8.70
2023-01-03T07:49:59.715Z,8.50
2023-01-03T07:50:59.946Z,8.20
2023-01-03T07:52:00.255Z,7.50
2023-01-03T07:53:00.577Z,6.80
2023-01-03T07:54:00.870Z,6.60
2023-01-03T07:55:01.203Z,6.40
2023-01-03T07:56:01.596Z,6.20
2023-01-03T07:57:01.795Z,6.00
2023-01-03T07:58:02.083Z,6.00
2023-01-03T07:59:02.403Z,5.80
2023-01-03T08:00:02.739Z,6.50
2023-01-03T08:01:03.026Z,6.30
2023-01-03T08:02:03.427Z,6.70
2023-01-03T08:03:06.463Z,6.30
2023-01-03T08:04:04.872Z,5.90
2023-01-03T08:05:04.246Z,5.10
2023-01-03T08:06:04.602Z,5.50
2023-01-03T08:07:04.760Z,6.00
2023-01-03T08:08:05.089Z,5.30
2023-01-03T08:09:06.417Z,4.80
2023-01-03T08:10:05.645Z,5.50
2023-01-03T08:11:05.997Z,4.90
2023-01-03T08:12:06.308Z,5.40
2023-01-03T08:13:06.617Z,6.00
2023-01-03T08:14:06.879Z,5.20
2023-01-03T08:15:07.226Z,5.60
2023-01-03T08:16:07.604Z,5.70
2023-01-03T08:17:07.819Z,4.60
2023-01-03T08:18:08.100Z,5.30
2023-01-03T08:19:08.440Z,5.80
2023-01-03T08:20:08.739Z,5.50
2023-01-03T08:21:09.031Z,6.30
2023-01-03T08:22:09.285Z,5.10
2023-01-03T08:23:09.568Z,5.20
2023-01-03T08:24:09.889Z,4.80
2023-01-03T08:25:10.230Z,4.70
2023-01-03T08:26:10.497Z,5.10
2023-01-03T08:27:10.799Z,5.00
2023-01-03T08:28:11.091Z,4.60
2023-01-03T08:29:11.425Z,4.70
2023-01-03T08:30:11.701Z,11.10
2023-01-03T08:31:11.970Z,32.80
2023-01-03T08:32:12.190Z,41.10
2023-01-03T08:33:12.497Z,37.40
2023-01-03T08:34:18.568Z,14.60
2023-01-03T08:35:14.073Z,38.00
2023-01-03T08:36:13.358Z,20.00
2023-01-03T08:37:13.570Z,18.50
2023-01-03T08:38:13.917Z,12.60
2023-01-03T08:39:14.105Z,8.60
2023-01-03T08:40:14.456Z,6.60
2023-01-03T08:41:14.790Z,5.40
2023-01-03T08:42:15.074Z,5.30
2023-01-03T08:43:15.355Z,4.80
2023-01-03T08:44:15.692Z,4.10
2023-01-03T08:47:38.452Z,4.90
2023-01-03T08:48:40.520Z,5.10
2023-01-03T08:49:39.144Z,4.50
2023-01-03T08:50:39.431Z,4.90
2023-01-03T08:51:39.791Z,5.00
2023-01-03T08:52:40.145Z,4.20
2023-01-03T08:53:40.347Z,4.70
2023-01-03T08:54:40.644Z,5.10
2023-01-03T08:55:40.979Z,4.80
2023-01-03T08:56:41.201Z,4.50
2023-01-03T08:57:41.592Z,4.40
2023-01-03T08:58:41.919Z,4.10
2023-01-03T08:59:49.261Z,4.30
2023-01-03T09:00:42.543Z,4.00
2023-01-03T09:01:43.192Z,3.90
2023-01-03T09:02:43.476Z,4.20
2023-01-03T09:03:43.643Z,3.70
2023-01-03T09:04:43.795Z,3.80
2023-01-03T09:05:44.144Z,3.80
2023-01-03T09:06:44.489Z,3.40
2023-01-03T09:07:44.802Z,3.60
2023-01-03T09:08:45.146Z,3.60
2023-01-03T09:09:45.434Z,3.20
2023-01-03T09:10:47.913Z,3.30
2023-01-03T09:11:46.021Z,3.40
2023-01-03T09:12:46.343Z,3.40
2023-01-03T09:13:46.660Z,3.50
2023-01-03T09:14:46.987Z,3.30
2023-01-03T09:15:47.449Z,3.10
2023-01-03T09:16:49.493Z,3.20
2023-01-03T09:17:47.990Z,3.30
2023-01-03T09:18:48.337Z,3.10
2023-01-03T09:19:48.657Z,3.50
2023-01-03T09:20:48.956Z,2.90
2023-01-03T09:21:49.287Z,3.50
2023-01-03T09:22:49.668Z,3.30
2023-01-03T09:23:49.983Z,3.10
2023-01-03T09:24:50.250Z,3.30
2023-01-03T09:25:50.576Z,2.90
2023-01-03T09:26:54.697Z,3.50
2023-01-03T09:27:51.329Z,3.10
2023-01-03T09:28:51.580Z,3.30
2023-01-03T09:29:51.758Z,3.20
2023-01-03T09:30:52.024Z,3.30
2023-01-03T09:31:52.438Z,3.20
2023-01-03T09:32:52.651Z,3.00
2023-01-03T09:33:52.850Z,3.20
2023-01-03T09:34:53.184Z,3.00
2023-01-03T09:35:53.595Z,2.80
2023-01-03T09:36:53.759Z,3.20
2023-01-03T09:37:54.079Z,2.60
2023-01-03T09:38:54.386Z,3.00
2023-01-03T09:39:54.719Z,3.10
2023-01-03T09:40:55.023Z,2.70
2023-01-03T09:41:55.371Z,3.30
2023-01-03T09:42:55.743Z,2.80
2023-01-03T09:43:56.111Z,2.50
2023-01-03T09:44:56.391Z,2.40
2023-01-03T09:45:56.708Z,2.50
2023-01-03T09:46:57.097Z,3.10
2023-01-03T09:47:57.477Z,2.70
2023-01-03T09:48:57.634Z,2.80
2023-01-03T09:50:27.809Z,2.70
2023-01-03T09:51:19.621Z,2.60
2023-01-03T09:51:59.548Z,2.40
2023-01-03T09:52:58.814Z,2.40
2023-01-03T09:53:59.140Z,2.60
2023-01-03T09:54:59.619Z,2.10
2023-01-03T09:55:59.746Z,2.20
2023-01-03T09:57:00.106Z,2.10
2023-01-03T09:58:00.333Z,2.00
2023-01-03T09:59:00.663Z,2.20
2023-01-03T10:00:01.000Z,2.30
2023-01-03T10:01:01.353Z,2.30
2023-01-03T10:02:01.965Z,1.80
2023-01-03T10:03:01.997Z,2.00
2023-01-03T10:04:02.156Z,2.20
2023-01-03T10:05:02.612Z,2.00
2023-01-03T10:06:02.758Z,2.30
2023-01-03T10:07:03.117Z,2.20
2023-01-03T10:08:03.483Z,2.10
2023-01-03T10:09:03.858Z,2.00
2023-01-03T10:10:06.771Z,2.10
2023-01-03T10:11:05.321Z,2.10
2023-01-03T10:12:04.568Z,2.20
2023-01-03T10:13:04.901Z,2.30
2023-01-03T10:14:05.217Z,2.30
2023-01-03T10:15:05.568Z,1.90
2023-01-03T10:16:06.022Z,2.00
2023-01-03T10:17:06.243Z,2.40
2023-01-03T10:18:06.455Z,2.20
2023-01-03T10:19:06.815Z,2.70
2023-01-03T10:20:07.093Z,2.00
2023-01-03T10:21:07.423Z,2.00
2023-01-03T10:22:07.784Z,2.40
2023-01-03T10:23:08.165Z,1.90
2023-01-03T10:24:08.333Z,2.10
2023-01-03T10:25:08.732Z,2.20
2023-01-03T10:26:09.047Z,1.80
2023-01-03T10:27:09.437Z,1.80
2023-01-03T10:28:09.694Z,1.90
2023-01-03T10:29:09.873Z,2.00
2023-01-03T10:30:10.231Z,2.10
2023-01-03T10:31:10.532Z,1.90
2023-01-03T10:32:10.900Z,2.10
2023-01-03T10:33:11.169Z,1.90
2023-01-03T10:34:11.389Z,1.80
2023-01-03T10:35:11.699Z,1.70
2023-01-03T10:36:12.022Z,2.00
2023-01-03T10:37:12.324Z,1.70
2023-01-03T10:38:12.684Z,1.70
2023-01-03T10:39:13.045Z,1.70
2023-01-03T10:40:13.245Z,1.80
2023-01-03T10:41:13.573Z,1.80
2023-01-03T10:42:13.866Z,2.10
2023-01-03T10:43:14.205Z,2.10
2023-01-03T10:44:14.575Z,1.80
2023-01-03T10:45:14.922Z,2.10
2023-01-03T10:46:15.352Z,2.10
2023-01-03T10:47:15.575Z,2.20
2023-01-03T10:48:15.896Z,1.80
2023-01-03T10:49:27.157Z,1.80
2023-01-03T10:50:17.515Z,1.70
2023-01-03T10:51:16.773Z,2.00
2023-01-03T10:52:17.076Z,1.90
2023-01-03T10:53:17.377Z,1.80
2023-01-03T10:54:17.744Z,1.70
2023-01-03T10:55:17.957Z,1.80
2023-01-03T10:56:18.226Z,1.60
2023-01-03T10:57:18.584Z,1.40
2023-01-03T10:58:18.935Z,1.80
2023-01-03T10:59:19.131Z,1.80
2023-01-03T11:00:19.462Z,1.70
2023-01-03T11:01:19.869Z,1.70
2023-01-03T11:02:20.343Z,1.70
2023-01-03T11:03:20.527Z,1.50
2023-01-03T11:04:20.795Z,1.90
2023-01-03T11:05:21.155Z,1.90
2023-01-03T11:06:21.466Z,1.80
2023-01-03T11:07:21.794Z,2.00
2023-01-03T11:08:22.104Z,1.70
2023-01-03T11:09:22.423Z,2.00
2023-01-03T11:10:22.785Z,1.40
2023-01-03T11:11:23.046Z,1.60
2023-01-03T11:12:23.395Z,1.40
2023-01-03T11:13:23.734Z,1.70
2023-01-03T11:14:24.059Z,1.60
2023-01-03T11:15:24.352Z,1.50
2023-01-03T11:16:24.743Z,1.20
2023-01-03T11:17:25.063Z,1.50
2023-01-03T11:18:25.387Z,1.80
2023-01-03T11:19:25.700Z,1.60
2023-01-03T11:20:26.052Z,1.70
2023-01-03T11:21:26.376Z,1.80
2023-01-03T11:22:29.755Z,1.60
2023-01-03T11:23:28.024Z,1.50
2023-01-03T11:24:27.263Z,1.60
2023-01-03T11:25:27.638Z,1.70
2023-01-03T11:26:27.968Z,1.80
2023-01-03T11:27:28.264Z,1.40
2023-01-03T11:28:28.647Z,1.80
2023-01-03T11:29:28.964Z,1.40
2023-01-03T11:30:29.302Z,1.40
2023-01-03T11:31:29.625Z,1.50
2023-01-03T11:32:29.943Z,1.60
2023-01-03T11:33:30.236Z,1.60
2023-01-03T11:34:48.172Z,1.60
2023-01-03T11:35:31.856Z,1.50
2023-01-03T11:36:31.104Z,1.80
2023-01-03T11:37:31.428Z,1.60
2023-01-03T11:38:31.750Z,1.60
2023-01-03T11:39:32.084Z,1.60
2023-01-03T11:40:32.387Z,1.70
2023-01-03T11:41:32.732Z,1.50
2023-01-03T11:42:33.087Z,1.50
2023-01-03T11:43:33.458Z,1.60
2023-01-03T11:44:33.684Z,1.50
2023-01-03T11:45:33.921Z,1.30
2023-01-03T11:46:34.260Z,1.70
2023-01-03T11:47:34.515Z,1.50
2023-01-03T11:48:34.891Z,1.70
2023-01-03T11:49:35.117Z,1.40
2023-01-03T11:50:35.467Z,1.40
2023-01-03T11:51:35.685Z,1.20
2023-01-03T11:52:35.989Z,1.10
2023-01-03T11:53:36.355Z,1.30
2023-01-03T11:54:36.578Z,1.40
2023-01-03T11:55:36.895Z,1.40
2023-01-03T11:56:37.237Z,1.10
2023-01-03T11:57:37.524Z,1.50
2023-01-03T11:58:37.897Z,1.30
2023-01-03T11:59:38.201Z,1.30
2023-01-03T12:00:38.536Z,1.00
2023-01-03T12:01:39.782Z,1.30
2023-01-03T12:02:39.113Z,1.40
2023-01-03T12:03:39.504Z,1.00
2023-01-03T12:04:39.769Z,1.20
2023-01-03T12:05:40.074Z,1.00
2023-01-03T12:06:40.388Z,1.20
2023-01-03T12:07:48.959Z,1.00
2023-01-03T12:08:42.046Z,1.00
2023-01-03T12:09:41.309Z,1.20
2023-01-03T12:10:41.620Z,0.90
2023-01-03T12:11:41.950Z,1.10
2023-01-03T12:12:42.241Z,1.30
2023-01-03T12:13:42.620Z,1.30
2023-01-03T12:14:42.953Z,1.20
2023-01-03T12:15:43.323Z,1.20
2023-01-03T12:16:43.567Z,1.10
2023-01-03T12:17:43.787Z,1.60
2023-01-03T12:18:44.134Z,1.60
2023-01-03T12:19:44.331Z,1.20
2023-01-03T12:20:44.681Z,1.70
2023-01-03T12:21:45.020Z,1.60
2023-01-03T12:22:45.365Z,1.20
2023-01-03T12:23:45.688Z,1.00
2023-01-03T12:24:46.018Z,1.10
2023-01-03T12:25:46.340Z,1.00
2023-01-03T12:26:46.542Z,1.20
2023-01-03T12:27:46.876Z,1.00
2023-01-03T12:28:47.241Z,1.80
2023-01-03T12:29:47.466Z,1.70
2023-01-03T12:30:47.684Z,2.70
2023-01-03T12:31:47.997Z,1.70
2023-01-03T12:32:48.209Z,1.20
2023-01-03T12:33:48.567Z,1.10
2023-01-03T12:34:48.773Z,1.10
2023-01-03T12:35:49.119Z,1.20
2023-01-03T12:36:49.440Z,0.80
2023-01-03T12:37:49.764Z,1.40
2023-01-03T12:38:50.110Z,1.00
2023-01-03T12:39:50.461Z,1.00
2023-01-03T12:40:50.791Z,0.90
2023-01-03T12:41:51.093Z,1.00
2023-01-03T12:42:51.458Z,1.10
2023-01-03T12:43:52.713Z,1.00
2023-01-03T12:44:52.103Z,1.20
2023-01-03T12:45:52.467Z,1.20
2023-01-03T12:46:52.753Z,1.30
2023-01-03T12:47:52.989Z,0.90
2023-01-03T12:48:53.303Z,1.50
2023-01-03T12:49:53.608Z,1.20
2023-01-03T12:50:53.990Z,1.00
2023-01-03T12:51:54.347Z,1.10
2023-01-03T12:52:54.738Z,1.20
2023-01-03T12:53:54.980Z,1.00
2023-01-03T12:54:55.224Z,1.40
2023-01-03T12:55:55.683Z,1.10
2023-01-03T12:56:55.938Z,1.10
2023-01-03T12:57:56.175Z,1.20
2023-01-03T12:58:56.438Z,1.30
2023-01-03T12:59:56.644Z,1.10
2023-01-03T13:00:57.024Z,1.10
2023-01-03T13:01:57.327Z,1.20
2023-01-03T13:02:57.756Z,1.00
2023-01-03T13:03:57.888Z,1.00
2023-01-03T13:04:57.961Z,1.20
2023-01-03T13:05:58.285Z,1.90
2023-01-03T13:06:58.658Z,2.30
2023-01-03T13:07:58.877Z,2.10
2023-01-03T13:08:59.247Z,1.40
2023-01-03T13:10:01.542Z,1.70
2023-01-03T13:10:59.785Z,1.30
2023-01-03T13:12:00.016Z,1.10
2023-01-03T13:13:00.365Z,1.40
2023-01-03T13:14:00.612Z,1.40
2023-01-03T13:15:00.828Z,1.00
2023-01-03T13:16:01.240Z,1.20
2023-01-03T13:17:01.512Z,1.00
2023-01-03T13:18:01.741Z,1.10
2023-01-03T13:19:02.083Z,1.10
2023-01-03T13:20:02.395Z,1.00
2023-01-03T13:21:02.596Z,1.10
2023-01-03T13:22:03.031Z,1.00
2023-01-03T13:23:03.269Z,1.30
2023-01-03T13:24:03.551Z,1.30